createdAt,value
2019-02-25T00:00:58.682Z,1.80
2019-02-25T00:02:35.184Z,1.80
2019-02-25T00:04:10.168Z,1.70
2019-02-25T00:05:45.066Z,1.70
2019-02-25T00:07:19.967Z,1.70
2019-02-25T00:08:54.861Z,1.70
2019-02-25T00:10:29.766Z,1.70
2019-02-25T00:12:04.653Z,1.70
2019-02-25T00:13:39.560Z,1.70
2019-02-25T00:15:14.549Z,1.60
2019-02-25T00:16:49.459Z,1.60
2019-02-25T00:18:24.376Z,1.60
2019-02-25T00:19:59.288Z,1.70
2019-02-25T00:21:34.316Z,1.60
2019-02-25T00:23:09.220Z,1.50
2019-02-25T00:24:44.611Z,1.50
2019-02-25T00:26:19.512Z,1.60
2019-02-25T00:27:54.424Z,1.60
2019-02-25T00:29:29.324Z,1.70
2019-02-25T00:31:04.237Z,1.70
2019-02-25T00:32:57.038Z,1.70
2019-02-25T00:34:49.592Z,1.70
2019-02-25T00:36:42.412Z,1.60
2019-02-25T00:38:35.198Z,1.60
2019-02-25T00:40:27.924Z,1.60
2019-02-25T00:42:20.695Z,1.50
2019-02-25T00:44:13.471Z,1.50
2019-02-25T00:46:06.232Z,1.50
2019-02-25T00:47:59.018Z,1.40
2019-02-25T00:49:51.312Z,1.40
2019-02-25T00:51:43.799Z,1.40
2019-02-25T00:53:36.613Z,1.40
2019-02-25T00:55:29.637Z,1.40
2019-02-25T00:57:22.608Z,1.40
2019-02-25T00:59:15.195Z,1.50
2019-02-25T01:01:07.957Z,1.50
2019-02-25T01:03:00.455Z,1.40
2019-02-25T01:04:53.251Z,1.40
2019-02-25T01:06:45.550Z,1.30
2019-02-25T01:08:37.993Z,1.30
2019-02-25T01:10:30.680Z,1.30
2019-02-25T01:12:23.200Z,1.30
2019-02-25T01:14:15.563Z,1.30
2019-02-25T01:15:52.860Z,1.20
2019-02-25T01:17:45.377Z,1.20
2019-02-25T01:19:38.132Z,1.20
2019-02-25T01:21:30.916Z,1.30
2019-02-25T01:23:24.043Z,1.30
2019-02-25T01:25:20.222Z,1.30
2019-02-25T01:27:13.710Z,1.40
2019-02-25T01:29:06.772Z,1.40
2019-02-25T01:30:59.440Z,1.40
2019-02-25T01:32:51.845Z,1.40
2019-02-25T01:34:44.629Z,1.40
2019-02-25T01:36:37.467Z,1.40
2019-02-25T01:38:30.612Z,1.40
2019-02-25T01:40:23.411Z,1.30
2019-02-25T01:42:16.179Z,1.30
2019-02-25T01:44:08.893Z,1.30
2019-02-25T01:46:01.612Z,1.20
2019-02-25T01:47:54.538Z,1.10
2019-02-25T01:49:47.301Z,1.10
2019-02-25T01:51:39.659Z,1.10
2019-02-25T01:53:32.363Z,1.10
2019-02-25T01:55:09.333Z,1.00
2019-02-25T01:56:44.248Z,1.00
2019-02-25T01:58:19.205Z,1.00
2019-02-25T01:59:54.094Z,1.00
2019-02-25T02:01:29.005Z,0.90
2019-02-25T02:03:03.976Z,0.90
2019-02-25T02:04:38.863Z,0.90
2019-02-25T02:06:13.774Z,0.90
2019-02-25T02:07:48.684Z,0.80
2019-02-25T02:09:23.573Z,0.80
2019-02-25T02:10:58.488Z,0.80
2019-02-25T02:12:33.449Z,0.80
2019-02-25T02:14:08.421Z,0.80
2019-02-25T02:15:43.332Z,0.80
2019-02-25T02:17:18.245Z,0.80
2019-02-25T02:18:53.134Z,0.70
2019-02-25T02:20:28.401Z,0.80
2019-02-25T02:22:03.320Z,0.70
2019-02-25T02:23:38.216Z,0.70
2019-02-25T02:25:13.859Z,0.70
2019-02-25T02:26:48.779Z,0.60
2019-02-25T02:28:23.666Z,0.60
2019-02-25T02:29:58.585Z,0.70
2019-02-25T02:31:33.560Z,0.60
2019-02-25T02:33:08.464Z,0.60
2019-02-25T02:34:43.440Z,0.60
2019-02-25T02:36:18.341Z,0.60
2019-02-25T02:37:53.299Z,0.60
2019-02-25T02:39:45.864Z,0.60
2019-02-25T02:42:16.892Z,0.70
2019-02-25T02:44:09.961Z,0.80
2019-02-25T02:46:14.943Z,0.80
2019-02-25T02:48:13.843Z,0.70
2019-02-25T02:50:12.784Z,0.70
2019-02-25T02:52:05.549Z,0.80
2019-02-25T02:53:58.142Z,0.70
2019-02-25T02:55:51.013Z,0.70
2019-02-25T02:57:43.929Z,0.60
2019-02-25T02:59:36.287Z,0.70
2019-02-25T03:01:29.100Z,0.70
2019-02-25T03:03:21.873Z,0.70
2019-02-25T03:05:15.134Z,0.70
2019-02-25T03:07:07.749Z,0.60
2019-02-25T03:09:01.060Z,0.70
2019-02-25T03:10:55.560Z,0.70
2019-02-25T03:12:47.867Z,0.70
2019-02-25T03:14:40.608Z,0.80
2019-02-25T03:16:32.980Z,0.80
2019-02-25T03:18:25.461Z,0.80
2019-02-25T03:20:18.213Z,0.80
2019-02-25T03:22:10.958Z,0.80
2019-02-25T03:24:04.253Z,0.80
2019-02-25T03:25:56.994Z,0.80
2019-02-25T03:27:49.760Z,0.80
2019-02-25T03:29:42.643Z,0.80
2019-02-25T03:31:35.680Z,0.90
2019-02-25T03:33:28.467Z,1.00
2019-02-25T03:35:22.662Z,1.00
2019-02-25T03:37:15.530Z,1.00
2019-02-25T03:38:50.437Z,1.00
2019-02-25T03:40:25.400Z,1.00
2019-02-25T03:42:00.302Z,1.10
2019-02-25T03:43:35.205Z,1.10
2019-02-25T03:45:12.538Z,1.10
2019-02-25T03:46:47.531Z,1.10
2019-02-25T03:48:22.441Z,1.20
2019-02-25T03:49:57.316Z,1.20
2019-02-25T03:51:32.220Z,1.20
2019-02-25T03:53:07.443Z,1.20
2019-02-25T03:54:42.445Z,1.10
2019-02-25T03:56:17.410Z,1.10
2019-02-25T03:57:52.318Z,1.10
2019-02-25T03:59:27.261Z,1.10
2019-02-25T04:01:02.168Z,1.10
2019-02-25T04:02:37.057Z,1.10
2019-02-25T04:04:11.968Z,1.10
2019-02-25T04:05:46.852Z,1.10
2019-02-25T04:07:21.789Z,1.20
2019-02-25T04:08:56.876Z,1.20
2019-02-25T04:10:31.784Z,1.20
2019-02-25T04:12:06.669Z,1.20
2019-02-25T04:13:41.579Z,1.20
2019-02-25T04:15:21.932Z,1.20
2019-02-25T04:16:56.840Z,1.10
2019-02-25T04:18:49.965Z,1.10
2019-02-25T04:20:42.791Z,1.20
2019-02-25T04:22:35.195Z,1.10
2019-02-25T04:24:28.052Z,1.00
2019-02-25T04:26:21.195Z,0.90
2019-02-25T04:28:13.972Z,1.00
2019-02-25T04:30:16.335Z,1.00
2019-02-25T04:32:09.133Z,0.90
2019-02-25T04:34:01.545Z,1.00
2019-02-25T04:35:54.346Z,0.90
2019-02-25T04:37:47.134Z,0.90
2019-02-25T04:39:39.704Z,0.90
2019-02-25T04:41:32.496Z,0.90
2019-02-25T04:43:24.834Z,0.90
2019-02-25T04:45:21.144Z,1.00
2019-02-25T04:47:13.633Z,1.00
2019-02-25T04:49:06.331Z,1.10
2019-02-25T04:50:59.265Z,0.90
2019-02-25T04:52:51.761Z,0.80
2019-02-25T04:54:44.965Z,0.70
2019-02-25T04:56:37.285Z,0.60
2019-02-25T04:58:29.876Z,0.40
2019-02-25T05:00:26.527Z,0.50
2019-02-25T05:02:19.271Z,0.40
2019-02-25T05:04:11.613Z,0.30
2019-02-25T05:06:04.692Z,0.20
2019-02-25T05:07:58.834Z,0.20
2019-02-25T05:09:51.628Z,0.10
2019-02-25T05:11:44.970Z,0.10
2019-02-25T05:13:37.914Z,0.10
2019-02-25T05:15:31.880Z,0.10
2019-02-25T05:17:24.741Z,0.10
2019-02-25T05:18:59.744Z,0.00
2019-02-25T05:20:34.999Z,0.00
2019-02-25T05:22:10.262Z,0.20
2019-02-25T05:23:45.170Z,0.00
2019-02-25T05:25:21.700Z,0.00
2019-02-25T05:26:56.613Z,0.00
2019-02-25T05:28:31.496Z,0.00
2019-02-25T05:30:10.032Z,0.00
2019-02-25T05:31:44.920Z,0.00
2019-02-25T05:33:19.893Z,0.00
2019-02-25T05:34:54.807Z,0.00
2019-02-25T05:36:29.714Z,0.20
2019-02-25T05:38:05.597Z,0.20
2019-02-25T05:39:40.628Z,0.20
2019-02-25T05:41:15.535Z,0.20
2019-02-25T05:42:50.422Z,0.30
2019-02-25T05:44:25.485Z,0.20
2019-02-25T05:46:00.421Z,0.30
2019-02-25T05:47:35.361Z,0.20
2019-02-25T05:49:11.501Z,0.20
2019-02-25T05:50:46.411Z,0.20
2019-02-25T05:52:21.306Z,0.20
2019-02-25T05:53:56.279Z,0.20
2019-02-25T05:55:32.342Z,0.20
2019-02-25T05:57:25.452Z,0.20
2019-02-25T05:59:18.165Z,0.10
2019-02-25T06:01:10.739Z,0.10
2019-02-25T06:03:03.321Z,0.10
2019-02-25T06:04:56.228Z,0.20
2019-02-25T06:06:50.136Z,0.20
2019-02-25T06:08:42.992Z,0.20
2019-02-25T06:10:35.783Z,0.30
2019-02-25T06:12:28.748Z,0.30
2019-02-25T06:14:22.010Z,0.20
2019-02-25T06:16:15.286Z,0.20
2019-02-25T06:18:07.625Z,0.20
2019-02-25T06:20:00.442Z,0.20
2019-02-25T06:21:54.842Z,0.20
2019-02-25T06:23:50.265Z,0.20
2019-02-25T06:25:44.642Z,0.30
2019-02-25T06:27:38.327Z,0.40
2019-02-25T06:29:31.247Z,0.50
2019-02-25T06:31:24.415Z,0.50
2019-02-25T06:33:17.056Z,0.50
2019-02-25T06:35:09.885Z,0.50
2019-02-25T06:37:02.424Z,0.60
2019-02-25T06:38:54.987Z,0.60
2019-02-25T06:40:47.788Z,0.50
2019-02-25T06:42:40.998Z,0.60
2019-02-25T06:44:33.841Z,0.60
2019-02-25T06:46:26.441Z,0.60
2019-02-25T06:48:19.446Z,0.70
2019-02-25T06:50:12.761Z,0.80
2019-02-25T06:52:06.044Z,0.90
2019-02-25T06:53:59.121Z,0.90
2019-02-25T06:55:36.845Z,0.90
2019-02-25T06:57:12.253Z,0.90
2019-02-25T06:58:47.506Z,1.00
2019-02-25T07:00:23.297Z,1.20
2019-02-25T07:01:58.593Z,1.30
2019-02-25T07:03:33.501Z,1.50
2019-02-25T07:05:17.104Z,1.70
2019-02-25T07:06:56.594Z,1.60
2019-02-25T07:08:36.347Z,1.60
2019-02-25T07:10:19.393Z,1.80
2019-02-25T07:12:01.304Z,2.90
2019-02-25T07:13:50.257Z,3.10
2019-02-25T07:15:30.218Z,3.70
2019-02-25T07:17:16.558Z,3.90
2019-02-25T07:18:59.292Z,4.00
2019-02-25T07:20:42.786Z,4.10
2019-02-25T07:22:20.881Z,3.70
2019-02-25T07:24:14.418Z,3.60
2019-02-25T07:25:57.285Z,3.90
2019-02-25T07:27:48.685Z,4.50
2019-02-25T07:29:30.940Z,4.10
2019-02-25T07:31:07.640Z,3.70
2019-02-25T07:32:44.207Z,3.30
2019-02-25T07:34:29.774Z,3.20
2019-02-25T07:36:30.362Z,3.10
2019-02-25T07:38:40.152Z,3.00
2019-02-25T07:40:37.601Z,3.10
2019-02-25T07:42:32.188Z,3.20
2019-02-25T07:44:38.445Z,3.20
2019-02-25T07:46:41.998Z,3.20
2019-02-25T07:48:39.955Z,3.20
2019-02-25T07:50:52.854Z,3.20
2019-02-25T07:52:47.427Z,3.30
2019-02-25T07:54:53.964Z,3.40
2019-02-25T07:56:54.667Z,3.50
2019-02-25T07:58:49.279Z,3.70
2019-02-25T08:00:52.753Z,3.90
2019-02-25T08:02:50.252Z,3.90
2019-02-25T08:04:44.593Z,3.90
2019-02-25T08:06:27.100Z,3.80
2019-02-25T08:08:24.642Z,4.00
2019-02-25T08:10:21.766Z,4.20
2019-02-25T08:12:28.150Z,4.30
2019-02-25T08:14:39.497Z,4.40
2019-02-25T08:16:49.391Z,4.30
2019-02-25T08:19:00.452Z,4.30
2019-02-25T08:21:01.088Z,4.60
2019-02-25T08:23:12.044Z,4.70
2019-02-25T08:25:24.074Z,4.70
2019-02-25T08:27:36.512Z,4.70
2019-02-25T08:29:40.299Z,5.10
2019-02-25T08:31:35.216Z,5.50
2019-02-25T08:33:35.834Z,5.60
2019-02-25T08:35:54.257Z,5.60
2019-02-25T08:37:52.217Z,5.70
2019-02-25T08:39:53.051Z,6.00
2019-02-25T08:42:04.109Z,6.10
2019-02-25T08:44:13.952Z,6.40
2019-02-25T08:46:08.505Z,6.70
2019-02-25T08:48:06.168Z,6.70
2019-02-25T08:49:58.735Z,6.30
2019-02-25T08:51:51.079Z,6.00
2019-02-25T08:53:43.948Z,6.00
2019-02-25T08:55:36.840Z,6.20
2019-02-25T08:57:29.661Z,6.30
2019-02-25T08:59:22.934Z,6.30
2019-02-25T09:01:15.821Z,6.50
2019-02-25T09:03:08.349Z,6.50
2019-02-25T09:05:01.149Z,6.60
2019-02-25T09:06:53.534Z,6.50
2019-02-25T09:08:46.639Z,6.50
2019-02-25T09:10:39.508Z,6.60
2019-02-25T09:12:32.299Z,6.50
2019-02-25T09:14:25.142Z,6.70
2019-02-25T09:16:18.974Z,6.70
2019-02-25T09:18:11.901Z,6.70
2019-02-25T09:20:05.569Z,6.70
2019-02-25T09:21:58.869Z,7.00
2019-02-25T09:23:51.876Z,7.10
2019-02-25T09:25:44.815Z,7.20
2019-02-25T09:27:37.745Z,7.60
2019-02-25T09:29:30.582Z,7.80
2019-02-25T09:31:23.384Z,7.70
2019-02-25T09:33:17.253Z,7.50
2019-02-25T09:35:09.718Z,7.30
2019-02-25T09:37:02.514Z,7.40
2019-02-25T09:38:56.776Z,7.20
2019-02-25T09:40:50.333Z,7.20
2019-02-25T09:42:43.145Z,7.40
2019-02-25T09:44:37.926Z,7.60
2019-02-25T09:46:30.935Z,7.50
2019-02-25T09:48:23.729Z,7.50
2019-02-25T09:50:22.102Z,7.60
2019-02-25T09:52:14.780Z,7.50
2019-02-25T09:54:07.198Z,7.70
2019-02-25T09:55:59.954Z,7.80
2019-02-25T09:57:52.695Z,8.00
2019-02-25T09:59:45.505Z,8.20
2019-02-25T10:01:35.420Z,8.20
2019-02-25T10:03:10.624Z,8.40
2019-02-25T10:04:45.697Z,8.50
2019-02-25T10:06:20.727Z,8.70
2019-02-25T10:07:55.729Z,8.60
2019-02-25T10:09:32.425Z,8.60
2019-02-25T10:11:07.373Z,8.80
2019-02-25T10:12:42.359Z,9.00
2019-02-25T10:14:17.243Z,9.20
2019-02-25T10:15:52.238Z,9.20
2019-02-25T10:17:27.122Z,9.20
2019-02-25T10:19:02.020Z,9.00
2019-02-25T10:20:36.964Z,8.90
2019-02-25T10:22:12.597Z,8.90
2019-02-25T10:23:47.581Z,9.10
2019-02-25T10:25:22.500Z,8.70
2019-02-25T10:26:57.406Z,8.50
2019-02-25T10:28:32.343Z,8.70
2019-02-25T10:30:12.424Z,8.80
2019-02-25T10:31:47.544Z,8.70
2019-02-25T10:33:22.476Z,8.40
2019-02-25T10:34:57.370Z,8.30
2019-02-25T10:36:32.290Z,8.20
2019-02-25T10:38:07.245Z,8.30
2019-02-25T10:39:43.345Z,8.10
2019-02-25T10:41:21.173Z,8.00
2019-02-25T10:42:55.828Z,8.10
2019-02-25T10:44:31.838Z,8.20
2019-02-25T10:46:09.621Z,8.60
2019-02-25T10:47:46.463Z,8.60
2019-02-25T10:49:22.469Z,8.60
2019-02-25T10:50:57.832Z,8.80
2019-02-25T10:52:33.252Z,8.80
2019-02-25T10:54:08.213Z,9.10
2019-02-25T10:56:01.514Z,9.10
2019-02-25T10:57:36.549Z,9.00
2019-02-25T10:59:12.257Z,8.90
2019-02-25T11:00:47.205Z,8.70
2019-02-25T11:02:44.432Z,8.80
2019-02-25T11:04:37.472Z,8.80
2019-02-25T11:06:33.427Z,8.80
2019-02-25T11:08:23.767Z,8.90
2019-02-25T11:10:27.388Z,9.00
2019-02-25T11:12:21.591Z,9.10
2019-02-25T11:14:14.980Z,9.30
2019-02-25T11:16:07.622Z,9.30
2019-02-25T11:18:00.714Z,9.40
2019-02-25T11:19:54.986Z,9.50
2019-02-25T11:21:48.119Z,9.60
2019-02-25T11:23:43.449Z,9.80
2019-02-25T11:25:36.030Z,9.80
2019-02-25T11:27:29.076Z,9.90
2019-02-25T11:29:22.978Z,10.10
2019-02-25T11:31:17.676Z,9.90
2019-02-25T11:33:10.417Z,10.00
2019-02-25T11:35:06.195Z,10.00
2019-02-25T11:36:59.519Z,10.00
2019-02-25T11:38:52.983Z,10.10
2019-02-25T11:40:45.480Z,10.20
2019-02-25T11:42:38.512Z,10.20
2019-02-25T11:44:31.745Z,10.30
2019-02-25T11:46:24.389Z,10.50
2019-02-25T11:48:17.143Z,10.60
2019-02-25T11:50:12.813Z,10.60
2019-02-25T11:52:05.751Z,10.50
2019-02-25T11:53:59.504Z,10.40
2019-02-25T11:55:52.938Z,10.70
2019-02-25T11:57:45.892Z,10.80
2019-02-25T11:59:38.537Z,10.80
2019-02-25T12:01:31.076Z,11.10
2019-02-25T12:03:23.919Z,11.20
2019-02-25T12:05:18.065Z,11.30
2019-02-25T12:07:11.300Z,11.40
2019-02-25T12:09:04.851Z,11.40
2019-02-25T12:10:59.060Z,11.20
2019-02-25T12:12:52.238Z,11.30
2019-02-25T12:14:44.624Z,11.40
2019-02-25T12:16:39.789Z,11.40
2019-02-25T12:18:32.826Z,11.40
2019-02-25T12:20:26.128Z,11.40
2019-02-25T12:22:19.171Z,11.50
2019-02-25T12:23:55.270Z,11.70
2019-02-25T12:25:30.261Z,12.00
2019-02-25T12:27:05.273Z,11.90
2019-02-25T12:28:40.228Z,12.10
2019-02-25T12:30:28.381Z,12.20
2019-02-25T12:32:03.367Z,12.30
2019-02-25T12:33:38.280Z,12.40
2019-02-25T12:35:13.572Z,12.40
2019-02-25T12:36:48.603Z,12.30
2019-02-25T12:38:23.613Z,12.40
2019-02-25T12:39:59.876Z,12.70
2019-02-25T12:41:34.778Z,12.60
2019-02-25T12:43:09.698Z,12.90
2019-02-25T12:44:44.606Z,13.30
2019-02-25T12:46:19.918Z,13.70
2019-02-25T12:47:54.906Z,13.80
2019-02-25T12:49:29.847Z,14.10
2019-02-25T12:51:04.874Z,13.40
2019-02-25T12:52:39.939Z,13.70
2019-02-25T12:54:32.828Z,13.80
2019-02-25T12:56:25.253Z,14.00
2019-02-25T12:58:18.604Z,14.00
2019-02-25T13:00:18.136Z,14.40
2019-02-25T13:02:10.982Z,14.90
2019-02-25T13:04:03.544Z,14.90
2019-02-25T13:05:56.561Z,14.90
2019-02-25T13:07:49.904Z,15.20
2019-02-25T13:09:42.719Z,15.30
2019-02-25T13:11:35.621Z,15.40
2019-02-25T13:13:28.375Z,15.10
2019-02-25T13:15:22.926Z,15.70
2019-02-25T13:17:15.861Z,15.50
2019-02-25T13:19:08.251Z,15.80
2019-02-25T13:21:02.378Z,16.30
2019-02-25T13:22:55.337Z,15.60
2019-02-25T13:24:47.829Z,15.00
2019-02-25T13:26:40.304Z,15.50
2019-02-25T13:28:15.294Z,15.00
2019-02-25T13:30:11.597Z,15.30
2019-02-25T13:32:04.537Z,15.70
2019-02-25T13:33:57.424Z,15.80
2019-02-25T13:35:50.468Z,15.50
2019-02-25T13:37:43.324Z,15.10
2019-02-25T13:39:36.645Z,14.50
2019-02-25T13:41:29.472Z,14.20
2019-02-25T13:43:22.605Z,14.20
2019-02-25T13:45:17.207Z,15.00
2019-02-25T13:47:10.616Z,15.30
2019-02-25T13:49:04.376Z,15.20
2019-02-25T13:50:56.855Z,15.20
2019-02-25T13:52:49.538Z,14.70
2019-02-25T13:54:42.240Z,14.80
2019-02-25T13:56:35.036Z,15.20
2019-02-25T13:58:28.002Z,15.00
2019-02-25T14:00:21.874Z,15.40
2019-02-25T14:02:15.179Z,15.30
2019-02-25T14:04:07.709Z,15.00
2019-02-25T14:06:00.431Z,15.00
2019-02-25T14:07:55.076Z,14.70
2019-02-25T14:09:48.267Z,14.40
2019-02-25T14:11:41.636Z,14.40
2019-02-25T14:13:34.995Z,14.10
2019-02-25T14:15:27.833Z,13.80
2019-02-25T14:17:20.786Z,13.70
2019-02-25T14:19:13.301Z,13.70
2019-02-25T14:21:06.149Z,13.70
2019-02-25T14:23:00.667Z,13.60
2019-02-25T14:24:53.377Z,13.80
2019-02-25T14:26:46.292Z,14.00
2019-02-25T14:28:38.963Z,14.10
2019-02-25T14:30:33.441Z,14.00
2019-02-25T14:32:27.856Z,14.10
2019-02-25T14:34:20.689Z,14.20
2019-02-25T14:36:14.230Z,14.10
2019-02-25T14:38:15.953Z,14.70
2019-02-25T14:40:16.633Z,14.90
2019-02-25T14:42:09.333Z,15.00
2019-02-25T14:44:02.115Z,14.90
2019-02-25T14:45:56.814Z,14.40
2019-02-25T14:47:55.407Z,14.50
2019-02-25T14:49:44.432Z,14.90
2019-02-25T14:51:37.112Z,15.60
2019-02-25T14:53:29.723Z,15.90
2019-02-25T14:55:22.542Z,15.70
2019-02-25T14:57:15.481Z,16.10
2019-02-25T14:59:12.513Z,15.90
2019-02-25T15:01:02.598Z,15.50
2019-02-25T15:02:56.072Z,14.80
2019-02-25T15:04:48.925Z,14.60
2019-02-25T15:06:41.843Z,15.00
2019-02-25T15:08:35.374Z,15.30
2019-02-25T15:10:31.143Z,15.60
2019-02-25T15:12:23.676Z,15.10
2019-02-25T15:14:19.221Z,14.90
2019-02-25T15:16:12.201Z,14.90
2019-02-25T15:18:05.216Z,14.70
2019-02-25T15:19:58.290Z,14.60
2019-02-25T15:21:52.175Z,14.90
2019-02-25T15:23:45.448Z,15.20
2019-02-25T15:25:42.148Z,15.40
2019-02-25T15:27:32.783Z,15.50
2019-02-25T15:29:25.338Z,15.60
2019-02-25T15:31:18.275Z,15.90
2019-02-25T15:33:11.074Z,16.10
2019-02-25T15:35:04.534Z,15.70
2019-02-25T15:36:58.618Z,15.40
2019-02-25T15:38:51.861Z,15.10
2019-02-25T15:40:44.312Z,15.10
2019-02-25T15:42:38.870Z,15.40
2019-02-25T15:44:31.761Z,15.30
2019-02-25T15:46:26.500Z,15.10
2019-02-25T15:48:21.735Z,14.40
2019-02-25T15:50:15.541Z,14.00
2019-02-25T15:52:10.503Z,13.90
2019-02-25T15:54:02.954Z,13.90
2019-02-25T15:55:59.200Z,13.70
2019-02-25T15:57:51.434Z,13.40
2019-02-25T15:59:44.046Z,13.20
2019-02-25T16:01:37.411Z,13.10
2019-02-25T16:03:31.902Z,13.00
2019-02-25T16:05:27.374Z,13.00
2019-02-25T16:07:23.871Z,12.90
2019-02-25T16:09:19.263Z,12.90
2019-02-25T16:11:12.033Z,12.90
2019-02-25T16:13:09.422Z,12.80
2019-02-25T16:15:00.336Z,12.70
2019-02-25T16:16:49.039Z,12.70
2019-02-25T16:18:25.319Z,12.60
2019-02-25T16:20:20.970Z,12.60
2019-02-25T16:22:14.328Z,12.40
2019-02-25T16:24:11.365Z,12.40
2019-02-25T16:26:01.829Z,12.30
2019-02-25T16:27:55.909Z,12.30
2019-02-25T16:29:51.799Z,12.10
2019-02-25T16:31:48.492Z,12.00
2019-02-25T16:33:41.735Z,11.90
2019-02-25T16:35:36.833Z,11.70
2019-02-25T16:37:31.741Z,11.70
2019-02-25T16:39:32.521Z,11.70
2019-02-25T16:41:31.771Z,11.60
2019-02-25T16:43:24.504Z,11.50
2019-02-25T16:45:23.838Z,11.40
2019-02-25T16:47:31.892Z,11.30
2019-02-25T16:49:36.532Z,11.30
2019-02-25T16:51:36.968Z,11.20
2019-02-25T16:53:29.688Z,11.10
2019-02-25T16:55:27.697Z,11.10
2019-02-25T16:57:25.051Z,11.10
2019-02-25T16:59:20.343Z,11.10
2019-02-25T17:01:15.362Z,11.10
2019-02-25T17:03:11.224Z,11.10
2019-02-25T17:05:06.531Z,11.00
2019-02-25T17:07:00.933Z,11.00
2019-02-25T17:08:55.612Z,10.90
2019-02-25T17:10:33.866Z,10.80
2019-02-25T17:12:11.928Z,10.80
2019-02-25T17:13:48.229Z,10.80
2019-02-25T17:15:26.893Z,10.80
2019-02-25T17:17:02.794Z,10.70
2019-02-25T17:18:39.679Z,10.60
2019-02-25T17:20:18.680Z,10.60
2019-02-25T17:21:55.451Z,10.50
2019-02-25T17:23:32.829Z,10.60
2019-02-25T17:25:12.233Z,10.50
2019-02-25T17:27:07.432Z,10.50
2019-02-25T17:29:02.970Z,10.50
2019-02-25T17:30:41.192Z,10.40
2019-02-25T17:32:19.383Z,10.40
2019-02-25T17:33:57.897Z,10.40
2019-02-25T17:35:34.409Z,10.30
2019-02-25T17:37:13.035Z,10.30
2019-02-25T17:38:51.993Z,10.30
2019-02-25T17:40:29.037Z,10.20
2019-02-25T17:42:08.017Z,10.20
2019-02-25T17:43:43.848Z,10.10
2019-02-25T17:45:38.994Z,10.10
2019-02-25T17:47:35.119Z,10.00
2019-02-25T17:49:31.499Z,9.90
2019-02-25T17:51:27.077Z,10.00
2019-02-25T17:53:24.028Z,9.90
2019-02-25T17:55:20.511Z,10.00
2019-02-25T17:57:14.994Z,9.90
2019-02-25T17:59:09.751Z,9.80
2019-02-25T18:01:06.575Z,9.80
2019-02-25T18:03:03.164Z,9.80
2019-02-25T18:04:58.390Z,9.70
2019-02-25T18:06:54.057Z,9.70
2019-02-25T18:08:48.412Z,9.70
2019-02-25T18:10:43.172Z,9.70
2019-02-25T18:12:39.168Z,9.60
2019-02-25T18:14:34.509Z,9.70
2019-02-25T18:16:32.852Z,9.60
2019-02-25T18:18:25.503Z,9.40
2019-02-25T18:20:23.696Z,9.40
2019-02-25T18:22:17.974Z,9.20
2019-02-25T18:24:13.029Z,9.10
2019-02-25T18:26:07.389Z,9.00
2019-02-25T18:28:04.408Z,8.90
2019-02-25T18:29:59.952Z,9.00
2019-02-25T18:31:54.747Z,9.00
2019-02-25T18:33:50.593Z,9.00
2019-02-25T18:35:45.742Z,9.00
2019-02-25T18:37:41.678Z,8.90
2019-02-25T18:39:36.606Z,8.80
2019-02-25T18:41:34.313Z,8.70
2019-02-25T18:43:30.215Z,8.60
2019-02-25T18:45:26.449Z,8.60
2019-02-25T18:47:20.746Z,8.50
2019-02-25T18:49:16.196Z,8.40
2019-02-25T18:51:11.882Z,8.40
2019-02-25T18:53:07.580Z,8.40
2019-02-25T18:55:04.387Z,8.40
2019-02-25T18:56:58.998Z,8.40
2019-02-25T18:59:07.422Z,8.80
2019-02-25T19:00:51.488Z,9.50
2019-02-25T19:02:46.186Z,9.60
2019-02-25T19:04:44.006Z,10.00
2019-02-25T19:06:41.372Z,9.90
2019-02-25T19:08:35.892Z,10.10
2019-02-25T19:10:30.730Z,9.90
2019-02-25T19:12:25.667Z,10.00
2019-02-25T19:14:21.898Z,9.90
2019-02-25T19:16:19.760Z,9.60
2019-02-25T19:18:17.696Z,9.30
2019-02-25T19:20:12.440Z,9.00
2019-02-25T19:22:08.601Z,8.70
2019-02-25T19:24:05.576Z,8.50
2019-02-25T19:25:59.582Z,8.40
2019-02-25T19:27:56.606Z,8.30
2019-02-25T19:29:53.627Z,8.30
2019-02-25T19:31:51.326Z,8.30
2019-02-25T19:33:47.848Z,8.30
2019-02-25T19:35:43.402Z,8.30
2019-02-25T19:37:40.561Z,8.30
2019-02-25T19:39:39.135Z,8.20
2019-02-25T19:41:32.032Z,8.20
2019-02-25T19:43:28.431Z,8.20
2019-02-25T19:45:24.444Z,8.20
2019-02-25T19:47:23.644Z,8.20
2019-02-25T19:49:20.964Z,8.20
2019-02-25T19:51:18.479Z,8.30
2019-02-25T19:53:19.522Z,8.30
2019-02-25T19:55:13.014Z,8.20
2019-02-25T19:57:11.562Z,8.20
2019-02-25T19:59:07.962Z,8.20
2019-02-25T20:01:06.201Z,8.10
2019-02-25T20:03:06.118Z,8.10
2019-02-25T20:05:00.804Z,8.10
2019-02-25T20:07:00.796Z,8.00
2019-02-25T20:08:58.363Z,8.10
2019-02-25T20:10:57.752Z,8.10
2019-02-25T20:12:53.224Z,8.10
2019-02-25T20:14:49.518Z,8.10
2019-02-25T20:16:44.339Z,8.00
2019-02-25T20:18:41.927Z,8.10
2019-02-25T20:20:38.404Z,8.00
2019-02-25T20:22:32.775Z,8.00
2019-02-25T20:24:32.412Z,8.00
2019-02-25T20:26:28.491Z,7.90
2019-02-25T20:28:25.077Z,7.80
2019-02-25T20:30:23.697Z,7.80
2019-02-25T20:32:20.633Z,7.60
2019-02-25T20:34:18.519Z,7.50
2019-02-25T20:36:17.078Z,7.40
2019-02-25T20:38:10.573Z,7.40
2019-02-25T20:39:52.826Z,7.30
2019-02-25T20:41:31.300Z,7.20
2019-02-25T20:43:08.469Z,7.20
2019-02-25T20:44:49.124Z,7.20
2019-02-25T20:46:26.319Z,7.20
2019-02-25T20:48:04.031Z,7.10
2019-02-25T20:49:40.751Z,7.10
2019-02-25T20:51:18.709Z,7.10
2019-02-25T20:52:59.058Z,7.10
2019-02-25T20:54:40.938Z,7.10
2019-02-25T20:56:24.440Z,7.10
2019-02-25T20:58:02.850Z,7.10
2019-02-25T20:59:47.189Z,7.10
2019-02-25T21:01:25.019Z,7.00
2019-02-25T21:03:01.802Z,7.00
2019-02-25T21:04:40.904Z,7.00
2019-02-25T21:06:21.205Z,7.00
2019-02-25T21:07:59.841Z,7.10
2019-02-25T21:09:39.927Z,7.10
2019-02-25T21:11:17.751Z,7.20
2019-02-25T21:12:54.714Z,7.00
2019-02-25T21:14:38.008Z,6.90
2019-02-25T21:16:16.316Z,6.80
2019-02-25T21:17:55.105Z,6.80
2019-02-25T21:19:33.425Z,6.80
2019-02-25T21:21:30.772Z,6.80
2019-02-25T21:23:08.486Z,6.80
2019-02-25T21:24:46.544Z,6.70
2019-02-25T21:26:25.462Z,6.80
2019-02-25T21:28:04.357Z,6.70
2019-02-25T21:29:41.215Z,6.80
2019-02-25T21:31:35.887Z,6.80
2019-02-25T21:33:30.927Z,6.70
2019-02-25T21:35:27.581Z,6.70
2019-02-25T21:37:23.377Z,6.70
2019-02-25T21:39:19.173Z,6.80
2019-02-25T21:41:15.311Z,6.70
2019-02-25T21:43:12.405Z,6.60
2019-02-25T21:45:08.512Z,6.60
2019-02-25T21:47:06.311Z,6.60
2019-02-25T21:49:04.046Z,6.60
2019-02-25T21:51:02.325Z,6.60
2019-02-25T21:52:56.376Z,6.60
2019-02-25T21:54:51.123Z,6.60
2019-02-25T21:56:45.670Z,6.60
2019-02-25T21:58:42.369Z,6.60
2019-02-25T22:00:38.590Z,6.60
2019-02-25T22:02:32.102Z,6.50
2019-02-25T22:04:26.529Z,6.50
2019-02-25T22:06:22.631Z,6.50
2019-02-25T22:08:20.114Z,6.50
2019-02-25T22:10:19.155Z,6.50
2019-02-25T22:12:14.449Z,6.50
2019-02-25T22:14:12.290Z,6.40
2019-02-25T22:16:07.922Z,6.40
2019-02-25T22:18:03.798Z,6.40
2019-02-25T22:19:57.845Z,6.40
2019-02-25T22:21:55.658Z,6.40
2019-02-25T22:23:49.467Z,6.40
2019-02-25T22:25:45.356Z,6.30
2019-02-25T22:27:41.191Z,6.30
2019-02-25T22:29:36.950Z,6.30
2019-02-25T22:31:32.979Z,6.30
2019-02-25T22:33:28.017Z,6.20
2019-02-25T22:35:23.082Z,6.20
2019-02-25T22:37:19.357Z,6.20
2019-02-25T22:39:13.291Z,6.20
2019-02-25T22:41:07.561Z,6.20
2019-02-25T22:43:02.032Z,6.00
2019-02-25T22:44:56.574Z,6.00
2019-02-25T22:46:51.077Z,5.90
2019-02-25T22:48:47.298Z,5.90
2019-02-25T22:50:42.755Z,5.80
2019-02-25T22:52:37.781Z,5.80
2019-02-25T22:54:32.411Z,5.80
2019-02-25T22:56:28.064Z,5.80
2019-02-25T22:58:22.264Z,5.70
2019-02-25T23:00:45.191Z,5.70
2019-02-25T23:02:43.099Z,5.70
2019-02-25T23:04:34.375Z,5.60
2019-02-25T23:06:27.707Z,5.60
2019-02-25T23:08:20.977Z,5.60
2019-02-25T23:10:17.406Z,5.50
2019-02-25T23:12:09.677Z,5.50
2019-02-25T23:14:03.847Z,5.50
2019-02-25T23:15:56.693Z,5.50
2019-02-25T23:17:49.497Z,5.40
2019-02-25T23:19:43.175Z,5.40
2019-02-25T23:21:38.355Z,5.50
2019-02-25T23:23:33.485Z,5.50
2019-02-25T23:25:26.017Z,5.40
2019-02-25T23:27:18.946Z,5.40
2019-02-25T23:29:12.253Z,5.40
2019-02-25T23:31:05.307Z,5.40
2019-02-25T23:32:58.049Z,5.40
2019-02-25T23:34:52.853Z,5.40
2019-02-25T23:36:47.037Z,5.40
2019-02-25T23:38:39.709Z,5.30
2019-02-25T23:40:35.373Z,5.20
2019-02-25T23:42:27.164Z,5.20
2019-02-25T23:44:20.353Z,5.10
2019-02-25T23:46:14.692Z,5.10
2019-02-25T23:48:08.947Z,5.10
2019-02-25T23:50:04.169Z,5.10
2019-02-25T23:51:56.288Z,5.10
2019-02-25T23:53:50.764Z,5.10
2019-02-25T23:55:47.151Z,5.10
2019-02-25T23:57:38.115Z,5.10
2019-02-25T23:59:30.925Z,5.10
